sensor_id;sensor_type;location;lat;lon;timestamp;P1;durP1;ratioP1;P2;durP2;ratioP2
79638;SDS011;69114;49.108;8.280;2023-04-29T00:00:19;9.40;;;7.38;;
79638;SDS011;69114;49.108;8.280;2023-04-29T00:02:44;9.50;;;6.72;;
79638;SDS011;69114;49.108;8.280;2023-04-29T00:05:10;7.28;;;5.88;;
79638;SDS011;69114;49.108;8.280;2023-04-29T00:07:35;6.95;;;5.50;;
79638;SDS011;69114;49.108;8.280;2023-04-29T00:10:02;6.70;;;5.72;;
79638;SDS011;69114;49.108;8.280;2023-04-29T00:12:27;9.35;;;6.50;;
79638;SDS011;69114;49.108;8.280;2023-04-29T00:14:54;8.73;;;5.53;;
79638;SDS011;69114;49.108;8.280;2023-04-29T00:17:19;10.70;;;6.93;;
79638;SDS011;69114;49.108;8.280;2023-04-29T00:19:45;17.60;;;7.45;;
79638;SDS011;69114;49.108;8.280;2023-04-29T00:22:10;8.98;;;6.40;;
79638;SDS011;69114;49.108;8.280;2023-04-29T00:24:35;14.30;;;7.78;;
79638;SDS011;69114;49.108;8.280;2023-04-29T00:27:01;9.52;;;5.93;;
79638;SDS011;69114;49.108;8.280;2023-04-29T00:29:26;12.15;;;6.57;;
79638;SDS011;69114;49.108;8.280;2023-04-29T00:31:52;12.82;;;7.75;;
79638;SDS011;69114;49.108;8.280;2023-04-29T00:34:17;15.82;;;7.53;;
79638;SDS011;69114;49.108;8.280;2023-04-29T00:36:43;10.35;;;7.10;;
79638;SDS011;69114;49.108;8.280;2023-04-29T00:39:08;8.52;;;5.93;;
79638;SDS011;69114;49.108;8.280;2023-04-29T00:41:33;8.50;;;6.22;;
79638;SDS011;69114;49.108;8.280;2023-04-29T00:43:59;6.93;;;5.22;;
79638;SDS011;69114;49.108;8.280;2023-04-29T00:46:25;11.25;;;6.68;;
79638;SDS011;69114;49.108;8.280;2023-04-29T00:48:50;10.02;;;7.00;;
79638;SDS011;69114;49.108;8.280;2023-04-29T00:51:15;17.25;;;8.80;;
79638;SDS011;69114;49.108;8.280;2023-04-29T00:53:42;10.05;;;7.35;;
79638;SDS011;69114;49.108;8.280;2023-04-29T00:56:07;15.98;;;9.45;;
79638;SDS011;69114;49.108;8.280;2023-04-29T00:58:34;10.60;;;7.38;;
79638;SDS011;69114;49.108;8.280;2023-04-29T01:01:00;14.10;;;7.82;;
79638;SDS011;69114;49.108;8.280;2023-04-29T01:03:28;14.18;;;8.15;;
79638;SDS011;69114;49.108;8.280;2023-04-29T01:08:45;12.43;;;7.63;;
79638;SDS011;69114;49.108;8.280;2023-04-29T01:11:21;11.93;;;8.05;;
79638;SDS011;69114;49.108;8.280;2023-04-29T01:13:58;13.73;;;8.07;;
79638;SDS011;69114;49.108;8.280;2023-04-29T01:16:29;10.27;;;7.05;;
79638;SDS011;69114;49.108;8.280;2023-04-29T01:19:01;10.80;;;6.97;;
79638;SDS011;69114;49.108;8.280;2023-04-29T01:21:31;7.78;;;6.20;;
79638;SDS011;69114;49.108;8.280;2023-04-29T01:23:56;10.43;;;7.07;;
79638;SDS011;69114;49.108;8.280;2023-04-29T01:26:22;10.45;;;6.63;;
79638;SDS011;69114;49.108;8.280;2023-04-29T01:29:02;10.90;;;7.03;;
79638;SDS011;69114;49.108;8.280;2023-04-29T01:32:03;11.43;;;7.20;;
79638;SDS011;69114;49.108;8.280;2023-04-29T01:34:31;13.55;;;8.13;;
79638;SDS011;69114;49.108;8.280;2023-04-29T01:37:07;14.52;;;9.27;;
79638;SDS011;69114;49.108;8.280;2023-04-29T01:39:44;20.25;;;11.25;;
79638;SDS011;69114;49.108;8.280;2023-04-29T01:42:23;21.23;;;11.23;;
79638;SDS011;69114;49.108;8.280;2023-04-29T01:44:55;16.58;;;9.50;;
79638;SDS011;69114;49.108;8.280;2023-04-29T01:49:51;15.43;;;8.52;;
79638;SDS011;69114;49.108;8.280;2023-04-29T01:52:16;12.82;;;8.73;;
79638;SDS011;69114;49.108;8.280;2023-04-29T01:54:41;15.77;;;8.18;;
79638;SDS011;69114;49.108;8.280;2023-04-29T01:57:07;11.90;;;7.03;;
79638;SDS011;69114;49.108;8.280;2023-04-29T01:59:32;12.43;;;7.68;;
79638;SDS011;69114;49.108;8.280;2023-04-29T02:01:58;10.27;;;6.88;;
79638;SDS011;69114;49.108;8.280;2023-04-29T02:04:23;9.17;;;5.83;;
79638;SDS011;69114;49.108;8.280;2023-04-29T02:06:49;8.02;;;5.90;;
79638;SDS011;69114;49.108;8.280;2023-04-29T02:09:16;9.18;;;6.10;;
79638;SDS011;69114;49.108;8.280;2023-04-29T02:11:42;9.60;;;6.35;;
79638;SDS011;69114;49.108;8.280;2023-04-29T02:14:07;10.38;;;7.10;;
79638;SDS011;69114;49.108;8.280;2023-04-29T02:16:32;8.35;;;6.25;;
79638;SDS011;69114;49.108;8.280;2023-04-29T02:18:58;8.23;;;6.07;;
79638;SDS011;69114;49.108;8.280;2023-04-29T02:21:23;10.20;;;5.75;;
79638;SDS011;69114;49.108;8.280;2023-04-29T02:23:48;7.20;;;4.93;;
79638;SDS011;69114;49.108;8.280;2023-04-29T02:26:15;7.85;;;4.82;;
79638;SDS011;69114;49.108;8.280;2023-04-29T02:28:40;9.30;;;5.47;;
79638;SDS011;69114;49.108;8.280;2023-04-29T02:31:06;8.15;;;5.45;;
79638;SDS011;69114;49.108;8.280;2023-04-29T02:33:31;9.73;;;6.07;;
79638;SDS011;69114;49.108;8.280;2023-04-29T02:35:57;9.45;;;5.85;;
79638;SDS011;69114;49.108;8.280;2023-04-29T02:38:23;10.48;;;5.72;;
79638;SDS011;69114;49.108;8.280;2023-04-29T02:40:49;8.73;;;5.15;;
79638;SDS011;69114;49.108;8.280;2023-04-29T02:43:14;6.63;;;4.80;;
79638;SDS011;69114;49.108;8.280;2023-04-29T02:45:39;6.43;;;4.85;;
79638;SDS011;69114;49.108;8.280;2023-04-29T02:48:05;6.50;;;4.35;;
79638;SDS011;69114;49.108;8.280;2023-04-29T02:50:31;7.72;;;5.00;;
79638;SDS011;69114;49.108;8.280;2023-04-29T02:52:57;6.63;;;4.93;;
79638;SDS011;69114;49.108;8.280;2023-04-29T02:55:22;8.25;;;5.03;;
79638;SDS011;69114;49.108;8.280;2023-04-29T02:57:48;5.25;;;4.22;;
79638;SDS011;69114;49.108;8.280;2023-04-29T03:00:13;4.93;;;4.05;;
79638;SDS011;69114;49.108;8.280;2023-04-29T03:02:38;5.95;;;4.28;;
79638;SDS011;69114;49.108;8.280;2023-04-29T03:05:04;9.73;;;5.50;;
79638;SDS011;69114;49.108;8.280;2023-04-29T03:07:30;8.10;;;4.20;;
79638;SDS011;69114;49.108;8.280;2023-04-29T03:09:56;5.88;;;4.28;;
79638;SDS011;69114;49.108;8.280;2023-04-29T03:12:21;5.07;;;3.90;;
79638;SDS011;69114;49.108;8.280;2023-04-29T03:14:47;6.00;;;3.97;;
79638;SDS011;69114;49.108;8.280;2023-04-29T03:17:12;6.25;;;4.10;;
79638;SDS011;69114;49.108;8.280;2023-04-29T03:19:38;6.78;;;5.18;;
79638;SDS011;69114;49.108;8.280;2023-04-29T03:22:03;6.85;;;4.00;;
79638;SDS011;69114;49.108;8.280;2023-04-29T03:24:29;5.13;;;4.30;;
79638;SDS011;69114;49.108;8.280;2023-04-29T03:26:54;8.15;;;5.03;;
79638;SDS011;69114;49.108;8.280;2023-04-29T03:29:20;5.88;;;4.40;;
79638;SDS011;69114;49.108;8.280;2023-04-29T03:31:45;5.15;;;4.47;;
79638;SDS011;69114;49.108;8.280;2023-04-29T03:34:11;5.82;;;4.07;;
79638;SDS011;69114;49.108;8.280;2023-04-29T03:36:38;7.43;;;3.65;;
79638;SDS011;69114;49.108;8.280;2023-04-29T03:39:03;5.15;;;3.90;;
79638;SDS011;69114;49.108;8.280;2023-04-29T03:41:29;6.35;;;3.45;;
79638;SDS011;69114;49.108;8.280;2023-04-29T03:43:54;6.22;;;3.95;;
79638;SDS011;69114;49.108;8.280;2023-04-29T03:46:24;6.57;;;4.28;;
79638;SDS011;69114;49.108;8.280;2023-04-29T03:48:50;5.25;;;3.58;;
79638;SDS011;69114;49.108;8.280;2023-04-29T03:51:16;5.03;;;4.13;;
79638;SDS011;69114;49.108;8.280;2023-04-29T03:53:42;5.57;;;3.72;;
79638;SDS011;69114;49.108;8.280;2023-04-29T03:56:08;7.18;;;3.97;;
79638;SDS011;69114;49.108;8.280;2023-04-29T03:58:33;5.25;;;3.70;;
79638;SDS011;69114;49.108;8.280;2023-04-29T04:00:59;5.45;;;3.47;;
79638;SDS011;69114;49.108;8.280;2023-04-29T04:03:24;5.00;;;3.47;;
79638;SDS011;69114;49.108;8.280;2023-04-29T04:05:51;4.38;;;3.22;;
79638;SDS011;69114;49.108;8.280;2023-04-29T04:08:17;4.18;;;3.15;;
79638;SDS011;69114;49.108;8.280;2023-04-29T04:10:42;4.00;;;3.10;;
79638;SDS011;69114;49.108;8.280;2023-04-29T04:13:08;5.00;;;3.67;;
79638;SDS011;69114;49.108;8.280;2023-04-29T04:15:33;6.05;;;3.17;;
79638;SDS011;69114;49.108;8.280;2023-04-29T04:17:59;5.57;;;3.38;;
79638;SDS011;69114;49.108;8.280;2023-04-29T04:20:24;6.30;;;3.28;;
79638;SDS011;69114;49.108;8.280;2023-04-29T04:22:49;5.28;;;3.47;;
79638;SDS011;69114;49.108;8.280;2023-04-29T04:25:15;5.00;;;3.20;;
79638;SDS011;69114;49.108;8.280;2023-04-29T04:27:40;5.68;;;3.10;;
79638;SDS011;69114;49.108;8.280;2023-04-29T04:30:06;4.70;;;3.10;;
79638;SDS011;69114;49.108;8.280;2023-04-29T04:32:31;3.90;;;2.90;;
79638;SDS011;69114;49.108;8.280;2023-04-29T04:34:57;4.60;;;2.90;;
79638;SDS011;69114;49.108;8.280;2023-04-29T04:37:22;4.28;;;3.30;;
79638;SDS011;69114;49.108;8.280;2023-04-29T04:39:48;5.22;;;3.22;;
79638;SDS011;69114;49.108;8.280;2023-04-29T04:42:13;3.88;;;2.88;;
79638;SDS011;69114;49.108;8.280;2023-04-29T04:44:39;3.80;;;2.83;;
79638;SDS011;69114;49.108;8.280;2023-04-29T04:47:04;4.67;;;3.20;;
79638;SDS011;69114;49.108;8.280;2023-04-29T04:49:30;4.45;;;2.97;;
79638;SDS011;69114;49.108;8.280;2023-04-29T04:51:55;4.93;;;2.97;;
79638;SDS011;69114;49.108;8.280;2023-04-29T04:54:21;3.63;;;2.80;;
79638;SDS011;69114;49.108;8.280;2023-04-29T04:56:46;3.55;;;2.97;;
79638;SDS011;69114;49.108;8.280;2023-04-29T04:59:12;3.97;;;2.53;;
79638;SDS011;69114;49.108;8.280;2023-04-29T05:01:38;6.82;;;3.30;;
79638;SDS011;69114;49.108;8.280;2023-04-29T05:04:03;3.65;;;2.88;;
79638;SDS011;69114;49.108;8.280;2023-04-29T05:06:28;3.90;;;2.92;;
79638;SDS011;69114;49.108;8.280;2023-04-29T05:08:54;3.92;;;3.00;;
79638;SDS011;69114;49.108;8.280;2023-04-29T05:11:20;4.60;;;3.00;;
79638;SDS011;69114;49.108;8.280;2023-04-29T05:13:46;3.50;;;2.53;;
79638;SDS011;69114;49.108;8.280;2023-04-29T05:16:12;4.72;;;3.05;;
79638;SDS011;69114;49.108;8.280;2023-04-29T05:18:37;4.65;;;3.10;;
79638;SDS011;69114;49.108;8.280;2023-04-29T05:21:02;4.53;;;3.47;;
79638;SDS011;69114;49.108;8.280;2023-04-29T05:23:28;3.83;;;2.70;;
79638;SDS011;69114;49.108;8.280;2023-04-29T05:25:53;5.13;;;3.35;;
79638;SDS011;69114;49.108;8.280;2023-04-29T05:28:19;3.53;;;2.90;;
79638;SDS011;69114;49.108;8.280;2023-04-29T05:30:44;5.35;;;2.70;;
79638;SDS011;69114;49.108;8.280;2023-04-29T05:33:11;3.30;;;2.42;;
79638;SDS011;69114;49.108;8.280;2023-04-29T05:35:36;6.13;;;2.83;;
79638;SDS011;69114;49.108;8.280;2023-04-29T05:38:02;3.78;;;2.60;;
79638;SDS011;69114;49.108;8.280;2023-04-29T05:40:27;4.20;;;2.63;;
79638;SDS011;69114;49.108;8.280;2023-04-29T05:42:53;3.85;;;2.90;;
79638;SDS011;69114;49.108;8.280;2023-04-29T05:45:18;4.22;;;2.90;;
79638;SDS011;69114;49.108;8.280;2023-04-29T05:47:44;4.70;;;2.85;;
79638;SDS011;69114;49.108;8.280;2023-04-29T05:50:09;5.43;;;3.08;;
79638;SDS011;69114;49.108;8.280;2023-04-29T05:52:38;4.32;;;3.08;;
79638;SDS011;69114;49.108;8.280;2023-04-29T05:55:03;3.70;;;3.03;;
79638;SDS011;69114;49.108;8.280;2023-04-29T05:57:29;4.13;;;2.92;;
79638;SDS011;69114;49.108;8.280;2023-04-29T05:59:54;4.20;;;3.13;;
79638;SDS011;69114;49.108;8.280;2023-04-29T06:02:19;3.60;;;3.10;;
79638;SDS011;69114;49.108;8.280;2023-04-29T06:04:45;4.55;;;3.33;;
79638;SDS011;69114;49.108;8.280;2023-04-29T06:07:11;6.18;;;3.38;;
79638;SDS011;69114;49.108;8.280;2023-04-29T06:09:37;9.85;;;3.22;;
79638;SDS011;69114;49.108;8.280;2023-04-29T06:12:03;5.47;;;3.50;;
79638;SDS011;69114;49.108;8.280;2023-04-29T06:14:28;5.28;;;3.20;;
79638;SDS011;69114;49.108;8.280;2023-04-29T06:16:54;4.93;;;3.30;;
79638;SDS011;69114;49.108;8.280;2023-04-29T06:19:19;5.28;;;3.80;;
79638;SDS011;69114;49.108;8.280;2023-04-29T06:21:45;6.18;;;3.63;;
79638;SDS011;69114;49.108;8.280;2023-04-29T06:24:10;4.30;;;3.20;;
79638;SDS011;69114;49.108;8.280;2023-04-29T06:26:36;4.38;;;3.60;;
79638;SDS011;69114;49.108;8.280;2023-04-29T06:29:01;5.70;;;3.05;;
79638;SDS011;69114;49.108;8.280;2023-04-29T06:31:27;5.53;;;3.80;;
79638;SDS011;69114;49.108;8.280;2023-04-29T06:33:52;6.88;;;3.70;;
79638;SDS011;69114;49.108;8.280;2023-04-29T06:36:18;4.70;;;3.13;;
79638;SDS011;69114;49.108;8.280;2023-04-29T06:38:44;6.10;;;3.42;;
79638;SDS011;69114;49.108;8.280;2023-04-29T06:41:09;6.50;;;3.67;;
79638;SDS011;69114;49.108;8.280;2023-04-29T06:43:35;5.40;;;3.63;;
79638;SDS011;69114;49.108;8.280;2023-04-29T06:46:00;5.45;;;3.85;;
79638;SDS011;69114;49.108;8.280;2023-04-29T06:48:25;5.43;;;4.10;;
79638;SDS011;69114;49.108;8.280;2023-04-29T06:50:52;4.95;;;3.58;;
79638;SDS011;69114;49.108;8.280;2023-04-29T06:53:21;5.95;;;4.18;;
79638;SDS011;69114;49.108;8.280;2023-04-29T06:55:47;6.07;;;4.43;;
79638;SDS011;69114;49.108;8.280;2023-04-29T06:58:13;6.20;;;3.83;;
79638;SDS011;69114;49.108;8.280;2023-04-29T07:00:48;5.10;;;3.30;;
79638;SDS011;69114;49.108;8.280;2023-04-29T07:03:14;5.60;;;3.38;;
79638;SDS011;69114;49.108;8.280;2023-04-29T07:05:42;4.28;;;3.20;;
79638;SDS011;69114;49.108;8.280;2023-04-29T07:08:09;4.43;;;3.00;;
79638;SDS011;69114;49.108;8.280;2023-04-29T07:10:36;4.38;;;3.30;;
79638;SDS011;69114;49.108;8.280;2023-04-29T07:13:01;5.20;;;3.20;;
79638;SDS011;69114;49.108;8.280;2023-04-29T07:15:27;4.88;;;3.08;;
79638;SDS011;69114;49.108;8.280;2023-04-29T07:17:53;4.28;;;3.10;;
79638;SDS011;69114;49.108;8.280;2023-04-29T07:20:19;6.28;;;4.25;;
79638;SDS011;69114;49.108;8.280;2023-04-29T07:22:44;3.92;;;2.85;;
79638;SDS011;69114;49.108;8.280;2023-04-29T07:25:10;5.55;;;3.78;;
79638;SDS011;69114;49.108;8.280;2023-04-29T07:27:35;5.97;;;3.53;;
79638;SDS011;69114;49.108;8.280;2023-04-29T07:30:01;4.10;;;3.10;;
79638;SDS011;69114;49.108;8.280;2023-04-29T07:32:28;5.13;;;3.50;;
79638;SDS011;69114;49.108;8.280;2023-04-29T07:34:56;4.78;;;3.28;;
79638;SDS011;69114;49.108;8.280;2023-04-29T07:37:22;5.90;;;3.70;;
79638;SDS011;69114;49.108;8.280;2023-04-29T07:39:47;6.07;;;3.67;;
79638;SDS011;69114;49.108;8.280;2023-04-29T07:42:13;5.05;;;3.30;;
79638;SDS011;69114;49.108;8.280;2023-04-29T07:44:38;4.65;;;3.60;;
79638;SDS011;69114;49.108;8.280;2023-04-29T07:47:03;3.95;;;2.72;;
79638;SDS011;69114;49.108;8.280;2023-04-29T07:49:29;4.88;;;3.60;;
79638;SDS011;69114;49.108;8.280;2023-04-29T07:51:55;4.00;;;2.97;;
79638;SDS011;69114;49.108;8.280;2023-04-29T07:54:20;4.80;;;3.17;;
79638;SDS011;69114;49.108;8.280;2023-04-29T07:56:46;5.60;;;2.85;;
79638;SDS011;69114;49.108;8.280;2023-04-29T07:59:12;4.28;;;3.00;;
79638;SDS011;69114;49.108;8.280;2023-04-29T08:01:39;5.43;;;3.58;;
79638;SDS011;69114;49.108;8.280;2023-04-29T08:04:05;4.90;;;3.30;;
79638;SDS011;69114;49.108;8.280;2023-04-29T08:06:31;3.88;;;2.72;;
79638;SDS011;69114;49.108;8.280;2023-04-29T08:08:56;4.55;;;3.20;;
79638;SDS011;69114;49.108;8.280;2023-04-29T08:11:22;4.45;;;3.00;;
79638;SDS011;69114;49.108;8.280;2023-04-29T08:13:48;5.32;;;3.00;;
79638;SDS011;69114;49.108;8.280;2023-04-29T08:16:14;4.35;;;3.03;;
79638;SDS011;69114;49.108;8.280;2023-04-29T08:18:39;4.72;;;3.28;;
79638;SDS011;69114;49.108;8.280;2023-04-29T08:21:05;4.03;;;3.20;;
79638;SDS011;69114;49.108;8.280;2023-04-29T08:23:30;4.03;;;2.95;;
79638;SDS011;69114;49.108;8.280;2023-04-29T08:25:56;4.32;;;3.17;;
79638;SDS011;69114;49.108;8.280;2023-04-29T08:28:22;5.47;;;3.33;;
79638;SDS011;69114;49.108;8.280;2023-04-29T08:30:47;5.55;;;3.00;;
79638;SDS011;69114;49.108;8.280;2023-04-29T08:33:13;3.95;;;3.00;;
79638;SDS011;69114;49.108;8.280;2023-04-29T08:35:39;3.72;;;3.03;;
79638;SDS011;69114;49.108;8.280;2023-04-29T08:38:04;3.75;;;2.88;;
79638;SDS011;69114;49.108;8.280;2023-04-29T08:40:34;4.75;;;3.20;;
79638;SDS011;69114;49.108;8.280;2023-04-29T08:43:07;4.22;;;2.38;;
79638;SDS011;69114;49.108;8.280;2023-04-29T08:45:34;3.30;;;2.70;;
79638;SDS011;69114;49.108;8.280;2023-04-29T08:48:01;4.38;;;3.03;;
79638;SDS011;69114;49.108;8.280;2023-04-29T08:50:28;4.72;;;3.22;;
79638;SDS011;69114;49.108;8.280;2023-04-29T08:52:55;4.40;;;3.28;;
79638;SDS011;69114;49.108;8.280;2023-04-29T08:55:20;4.10;;;3.45;;
79638;SDS011;69114;49.108;8.280;2023-04-29T08:57:46;3.92;;;2.90;;
79638;SDS011;69114;49.108;8.280;2023-04-29T09:00:14;6.82;;;4.03;;
79638;SDS011;69114;49.108;8.280;2023-04-29T09:02:42;5.00;;;3.58;;
79638;SDS011;69114;49.108;8.280;2023-04-29T09:05:10;4.43;;;3.63;;
79638;SDS011;69114;49.108;8.280;2023-04-29T09:07:39;6.15;;;3.72;;
79638;SDS011;69114;49.108;8.280;2023-04-29T09:10:06;5.07;;;3.40;;
79638;SDS011;69114;49.108;8.280;2023-04-29T09:12:32;5.82;;;3.13;;
79638;SDS011;69114;49.108;8.280;2023-04-29T09:14:58;8.80;;;3.25;;
79638;SDS011;69114;49.108;8.280;2023-04-29T09:17:42;5.60;;;3.17;;
79638;SDS011;69114;49.108;8.280;2023-04-29T09:22:50;6.88;;;3.30;;
79638;SDS011;69114;49.108;8.280;2023-04-29T09:25:16;6.10;;;3.28;;
79638;SDS011;69114;49.108;8.280;2023-04-29T09:27:41;6.45;;;3.53;;
79638;SDS011;69114;49.108;8.280;2023-04-29T09:30:07;4.47;;;3.35;;
79638;SDS011;69114;49.108;8.280;2023-04-29T09:32:33;5.45;;;3.15;;
79638;SDS011;69114;49.108;8.280;2023-04-29T09:35:15;6.53;;;3.45;;
79638;SDS011;69114;49.108;8.280;2023-04-29T09:37:51;9.73;;;6.28;;
79638;SDS011;69114;49.108;8.280;2023-04-29T09:42:58;10.90;;;7.68;;
79638;SDS011;69114;49.108;8.280;2023-04-29T09:45:34;13.63;;;8.32;;
79638;SDS011;69114;49.108;8.280;2023-04-29T09:48:01;13.30;;;8.65;;
79638;SDS011;69114;49.108;8.280;2023-04-29T09:50:30;11.70;;;7.85;;
79638;SDS011;69114;49.108;8.280;2023-04-29T09:52:56;12.27;;;8.18;;
79638;SDS011;69114;49.108;8.280;2023-04-29T09:55:22;13.13;;;8.02;;
79638;SDS011;69114;49.108;8.280;2023-04-29T09:57:47;13.68;;;8.02;;
79638;SDS011;69114;49.108;8.280;2023-04-29T10:00:13;13.15;;;8.13;;
79638;SDS011;69114;49.108;8.280;2023-04-29T10:02:48;13.15;;;8.65;;
79638;SDS011;69114;49.108;8.280;2023-04-29T10:05:15;13.35;;;8.05;;
79638;SDS011;69114;49.108;8.280;2023-04-29T10:07:41;11.85;;;7.63;;
79638;SDS011;69114;49.108;8.280;2023-04-29T10:10:08;13.95;;;8.20;;
79638;SDS011;69114;49.108;8.280;2023-04-29T10:12:35;11.73;;;7.55;;
79638;SDS011;69114;49.108;8.280;2023-04-29T10:23:11;13.10;;;6.95;;
79638;SDS011;69114;49.108;8.280;2023-04-29T10:25:38;11.00;;;6.63;;
79638;SDS011;69114;49.108;8.280;2023-04-29T10:28:07;10.82;;;6.60;;
79638;SDS011;69114;49.108;8.280;2023-04-29T10:30:38;9.07;;;6.55;;
79638;SDS011;69114;49.108;8.280;2023-04-29T10:33:06;9.77;;;6.15;;
79638;SDS011;69114;49.108;8.280;2023-04-29T10:35:38;9.27;;;6.00;;
79638;SDS011;69114;49.108;8.280;2023-04-29T10:38:05;7.70;;;5.30;;
79638;SDS011;69114;49.108;8.280;2023-04-29T10:40:43;8.68;;;5.82;;
79638;SDS011;69114;49.108;8.280;2023-04-29T10:45:39;9.68;;;5.47;;
79638;SDS011;69114;49.108;8.280;2023-04-29T10:48:07;7.88;;;4.80;;
79638;SDS011;69114;49.108;8.280;2023-04-29T10:53:14;7.55;;;4.80;;
79638;SDS011;69114;49.108;8.280;2023-04-29T10:55:40;8.82;;;4.78;;
79638;SDS011;69114;49.108;8.280;2023-04-29T10:58:41;7.90;;;5.07;;
79638;SDS011;69114;49.108;8.280;2023-04-29T11:01:03;6.75;;;4.70;;
79638;SDS011;69114;49.108;8.280;2023-04-29T11:08:59;8.75;;;4.95;;
79638;SDS011;69114;49.108;8.280;2023-04-29T11:11:38;7.90;;;4.85;;
79638;SDS011;69114;49.108;8.280;2023-04-29T11:14:08;6.90;;;4.95;;
79638;SDS011;69114;49.108;8.280;2023-04-29T11:16:35;7.57;;;4.88;;
79638;SDS011;69114;49.108;8.280;2023-04-29T11:19:05;9.32;;;5.40;;
79638;SDS011;69114;49.108;8.280;2023-04-29T11:21:35;7.22;;;4.72;;
79638;SDS011;69114;49.108;8.280;2023-04-29T11:24:01;7.90;;;5.18;;
79638;SDS011;69114;49.108;8.280;2023-04-29T11:26:28;7.68;;;5.18;;
79638;SDS011;69114;49.108;8.280;2023-04-29T11:28:54;7.25;;;5.00;;
79638;SDS011;69114;49.108;8.280;2023-04-29T11:31:24;8.20;;;5.18;;
79638;SDS011;69114;49.108;8.280;2023-04-29T11:33:52;7.10;;;4.68;;
79638;SDS011;69114;49.108;8.280;2023-04-29T11:36:18;7.75;;;5.07;;
79638;SDS011;69114;49.108;8.280;2023-04-29T11:38:43;6.88;;;4.78;;
79638;SDS011;69114;49.108;8.280;2023-04-29T11:41:10;8.40;;;5.22;;
79638;SDS011;69114;49.108;8.280;2023-04-29T11:43:35;7.90;;;4.93;;
79638;SDS011;69114;49.108;8.280;2023-04-29T11:46:10;7.95;;;5.13;;
79638;SDS011;69114;49.108;8.280;2023-04-29T11:48:37;6.78;;;4.65;;
79638;SDS011;69114;49.108;8.280;2023-04-29T11:51:12;7.22;;;4.93;;
79638;SDS011;69114;49.108;8.280;2023-04-29T11:53:39;6.13;;;4.22;;
79638;SDS011;69114;49.108;8.280;2023-04-29T11:56:05;10.02;;;5.53;;
79638;SDS011;69114;49.108;8.280;2023-04-29T11:58:30;8.27;;;5.20;;
79638;SDS011;69114;49.108;8.280;2023-04-29T12:00:57;5.90;;;4.03;;
79638;SDS011;69114;49.108;8.280;2023-04-29T12:03:22;7.70;;;5.15;;
79638;SDS011;69114;49.108;8.280;2023-04-29T12:05:51;8.38;;;5.20;;
79638;SDS011;69114;49.108;8.280;2023-04-29T12:08:20;8.25;;;5.25;;
79638;SDS011;69114;49.108;8.280;2023-04-29T12:10:49;6.63;;;4.47;;
79638;SDS011;69114;49.108;8.280;2023-04-29T12:13:16;7.18;;;4.80;;
79638;SDS011;69114;49.108;8.280;2023-04-29T12:15:43;7.07;;;4.53;;
79638;SDS011;69114;49.108;8.280;2023-04-29T12:18:12;10.88;;;4.80;;
79638;SDS011;69114;49.108;8.280;2023-04-29T12:20:38;7.70;;;5.03;;
79638;SDS011;69114;49.108;8.280;2023-04-29T12:25:44;7.53;;;5.13;;
79638;SDS011;69114;49.108;8.280;2023-04-29T12:28:13;8.23;;;4.68;;
79638;SDS011;69114;49.108;8.280;2023-04-29T12:30:39;6.90;;;4.43;;
79638;SDS011;69114;49.108;8.280;2023-04-29T12:33:08;7.78;;;4.35;;
79638;SDS011;69114;49.108;8.280;2023-04-29T12:35:34;8.80;;;4.90;;
79638;SDS011;69114;49.108;8.280;2023-04-29T12:38:00;7.22;;;4.63;;
79638;SDS011;69114;49.108;8.280;2023-04-29T12:40:26;8.50;;;5.10;;
79638;SDS011;69114;49.108;8.280;2023-04-29T12:42:52;7.82;;;5.15;;
79638;SDS011;69114;49.108;8.280;2023-04-29T12:45:27;8.20;;;5.20;;
79638;SDS011;69114;49.108;8.280;2023-04-29T12:47:57;8.18;;;5.32;;
79638;SDS011;69114;49.108;8.280;2023-04-29T12:52:59;7.80;;;5.38;;
79638;SDS011;69114;49.108;8.280;2023-04-29T12:55:25;7.03;;;4.80;;
79638;SDS011;69114;49.108;8.280;2023-04-29T12:57:51;9.50;;;5.70;;
79638;SDS011;69114;49.108;8.280;2023-04-29T13:00:17;6.60;;;4.30;;
79638;SDS011;69114;49.108;8.280;2023-04-29T13:02:44;8.02;;;5.25;;
79638;SDS011;69114;49.108;8.280;2023-04-29T13:05:11;6.97;;;4.47;;
79638;SDS011;69114;49.108;8.280;2023-04-29T13:07:36;7.82;;;4.88;;
79638;SDS011;69114;49.108;8.280;2023-04-29T13:10:02;7.57;;;5.20;;
79638;SDS011;69114;49.108;8.280;2023-04-29T13:12:30;8.75;;;5.03;;
79638;SDS011;69114;49.108;8.280;2023-04-29T13:14:55;7.82;;;5.25;;
79638;SDS011;69114;49.108;8.280;2023-04-29T13:17:21;7.90;;;5.65;;
79638;SDS011;69114;49.108;8.280;2023-04-29T13:19:46;7.20;;;5.25;;
79638;SDS011;69114;49.108;8.280;2023-04-29T13:22:12;7.53;;;4.82;;
79638;SDS011;69114;49.108;8.280;2023-04-29T13:24:37;7.18;;;4.97;;
79638;SDS011;69114;49.108;8.280;2023-04-29T13:27:02;7.25;;;4.22;;
79638;SDS011;69114;49.108;8.280;2023-04-29T13:29:28;9.38;;;5.78;;
79638;SDS011;69114;49.108;8.280;2023-04-29T13:31:53;8.38;;;5.45;;
79638;SDS011;69114;49.108;8.280;2023-04-29T13:34:18;10.25;;;6.13;;
79638;SDS011;69114;49.108;8.280;2023-04-29T13:36:44;8.40;;;5.38;;
79638;SDS011;69114;49.108;8.280;2023-04-29T13:39:10;7.65;;;4.15;;
79638;SDS011;69114;49.108;8.280;2023-04-29T13:41:35;7.85;;;5.20;;
79638;SDS011;69114;49.108;8.280;2023-04-29T13:44:00;7.77;;;5.43;;
79638;SDS011;69114;49.108;8.280;2023-04-29T13:46:26;7.82;;;5.20;;
79638;SDS011;69114;49.108;8.280;2023-04-29T13:48:52;9.35;;;5.05;;
79638;SDS011;69114;49.108;8.280;2023-04-29T13:51:17;9.02;;;5.30;;
79638;SDS011;69114;49.108;8.280;2023-04-29T13:53:43;8.25;;;5.20;;
79638;SDS011;69114;49.108;8.280;2023-04-29T13:56:08;8.30;;;4.80;;
79638;SDS011;69114;49.108;8.280;2023-04-29T13:58:34;9.70;;;5.28;;
79638;SDS011;69114;49.108;8.280;2023-04-29T14:01:00;7.90;;;4.90;;
79638;SDS011;69114;49.108;8.280;2023-04-29T14:03:25;6.88;;;4.45;;
79638;SDS011;69114;49.108;8.280;2023-04-29T14:05:50;5.40;;;3.90;;
79638;SDS011;69114;49.108;8.280;2023-04-29T14:08:16;6.65;;;4.10;;
79638;SDS011;69114;49.108;8.280;2023-04-29T14:10:41;6.55;;;4.47;;
79638;SDS011;69114;49.108;8.280;2023-04-29T14:13:07;5.55;;;4.05;;
79638;SDS011;69114;49.108;8.280;2023-04-29T14:15:32;8.10;;;4.32;;
79638;SDS011;69114;49.108;8.280;2023-04-29T14:17:57;7.60;;;5.18;;
79638;SDS011;69114;49.108;8.280;2023-04-29T14:20:23;8.60;;;5.00;;
79638;SDS011;69114;49.108;8.280;2023-04-29T14:22:48;5.85;;;3.80;;
79638;SDS011;69114;49.108;8.280;2023-04-29T14:25:14;6.90;;;4.80;;
79638;SDS011;69114;49.108;8.280;2023-04-29T14:27:39;6.15;;;4.20;;
79638;SDS011;69114;49.108;8.280;2023-04-29T14:30:04;8.43;;;5.03;;
79638;SDS011;69114;49.108;8.280;2023-04-29T14:32:30;6.65;;;4.80;;
79638;SDS011;69114;49.108;8.280;2023-04-29T14:34:56;6.32;;;4.43;;
79638;SDS011;69114;49.108;8.280;2023-04-29T14:37:22;6.88;;;4.82;;
79638;SDS011;69114;49.108;8.280;2023-04-29T14:39:47;7.95;;;5.05;;
79638;SDS011;69114;49.108;8.280;2023-04-29T14:42:13;8.13;;;5.40;;
79638;SDS011;69114;49.108;8.280;2023-04-29T14:44:39;7.82;;;4.68;;
79638;SDS011;69114;49.108;8.280;2023-04-29T14:47:04;8.15;;;5.15;;
79638;SDS011;69114;49.108;8.280;2023-04-29T14:49:30;6.72;;;4.90;;
79638;SDS011;69114;49.108;8.280;2023-04-29T14:51:55;9.48;;;6.43;;
79638;SDS011;69114;49.108;8.280;2023-04-29T14:54:20;7.38;;;5.57;;
79638;SDS011;69114;49.108;8.280;2023-04-29T14:56:46;8.43;;;5.55;;
79638;SDS011;69114;49.108;8.280;2023-04-29T14:59:11;8.15;;;5.00;;
79638;SDS011;69114;49.108;8.280;2023-04-29T15:01:37;8.45;;;5.30;;
79638;SDS011;69114;49.108;8.280;2023-04-29T15:04:03;10.02;;;5.60;;
79638;SDS011;69114;49.108;8.280;2023-04-29T15:06:30;6.90;;;4.63;;
79638;SDS011;69114;49.108;8.280;2023-04-29T15:08:56;8.82;;;5.85;;
79638;SDS011;69114;49.108;8.280;2023-04-29T15:11:22;8.13;;;5.93;;
79638;SDS011;69114;49.108;8.280;2023-04-29T15:13:48;8.82;;;5.57;;
79638;SDS011;69114;49.108;8.280;2023-04-29T15:16:13;7.53;;;5.32;;